Time;durP1;ratioP1;P1;durP2;ratioP2;P2;SDS_P1;SDS_P2;PMS_P1;PMS_P2;Temp;Humidity;BMP_temperature;BMP_pressure;BME280_temperature;BME280_humidity;BME280_pressure;Samples;Min_cycle;Max_cycle;Signal;HPM_P1;HPM_P2
2022/08/01 00:00:30;;;;;;;3.67;2.13;;;;;;;40.09;20.88;100374.13;4899794;29;20060;-74
2022/08/01 00:03:07;;;;;;;3.13;2.45;;;;;;;40.04;19.92;100360.19;4888195;29;20131;-75
2022/08/01 00:05:35;;;;;;;3.63;2.00;;;;;;;39.99;20.90;100374.19;4894796;29;20049;-72
2022/08/01 00:08:04;;;;;;;3.35;2.33;;;;;;;39.98;20.76;100364.38;4887589;29;20059;-74
2022/08/01 00:10:32;;;;;;;4.60;2.72;;;;;;;39.92;20.70;100366.84;4897923;29;20129;-74
2022/08/01 00:13:01;;;;;;;4.90;2.45;;;;;;;39.88;21.04;100369.00;4887197;29;20084;-74
2022/08/01 00:15:29;;;;;;;2.80;2.10;;;;;;;39.87;21.16;100369.19;4886706;29;20135;-74
2022/08/01 00:17:57;;;;;;;5.45;2.28;;;;;;;39.82;20.84;100363.38;4887946;29;20080;-74
2022/08/01 00:20:28;;;;;;;6.32;2.25;;;;;;;39.78;20.58;100360.94;4901136;29;20066;-75
2022/08/01 00:22:56;;;;;;;3.60;2.30;;;;;;;39.76;20.86;100352.09;4891747;29;20147;-75
2022/08/01 00:25:24;;;;;;;6.10;2.63;;;;;;;39.75;22.04;100360.41;4894024;29;20063;-75
2022/08/01 00:27:54;;;;;;;7.53;2.65;;;;;;;39.72;21.98;100356.16;4892844;29;20044;-74
2022/08/01 00:30:22;;;;;;;4.57;2.33;;;;;;;39.68;21.96;100360.16;4891536;29;20063;-76
2022/08/01 00:32:50;;;;;;;2.83;1.80;;;;;;;39.64;21.94;100360.63;4898950;29;20045;-74
2022/08/01 00:35:19;;;;;;;5.93;2.40;;;;;;;39.54;21.31;100371.50;4897304;29;20059;-76
2022/08/01 00:37:49;;;;;;;3.05;2.17;;;;;;;39.45;21.88;100364.28;4895954;29;20515;-75
2022/08/01 00:40:17;;;;;;;3.97;2.42;;;;;;;39.31;21.73;100363.78;4885263;29;20153;-74
2022/08/01 00:42:45;;;;;;;2.45;1.88;;;;;;;39.22;21.32;100364.69;4893107;29;20055;-74
2022/08/01 00:45:14;;;;;;;6.45;2.03;;;;;;;39.20;21.93;100365.84;4891250;29;20056;-76
2022/08/01 00:47:42;;;;;;;4.32;2.17;;;;;;;39.18;21.72;100371.41;4894114;29;20088;-75
2022/08/01 00:50:12;;;;;;;3.13;2.13;;;;;;;39.04;22.15;100369.19;4889758;29;20509;-75
2022/08/01 00:52:41;;;;;;;5.00;2.20;;;;;;;38.93;22.14;100370.22;4895496;29;20071;-75
2022/08/01 00:55:13;;;;;;;3.83;2.05;;;;;;;38.88;21.57;100375.19;4882177;29;20105;-73
2022/08/01 00:57:42;;;;;;;3.10;2.30;;;;;;;38.82;21.49;100373.91;4894821;29;20059;-74
2022/08/01 01:00:12;;;;;;;4.70;2.20;;;;;;;38.80;21.41;100369.66;4886127;29;20052;-75
2022/08/01 01:02:40;;;;;;;4.05;2.00;;;;;;;38.63;21.38;100364.00;4890941;29;20128;-72
2022/08/01 01:05:10;;;;;;;3.33;2.40;;;;;;;38.43;20.90;100363.16;4892817;29;20083;-75
2022/08/01 01:07:46;;;;;;;2.90;2.22;;;;;;;38.36;20.92;100362.03;4890230;29;20080;-75
2022/08/01 01:10:22;;;;;;;5.15;2.03;;;;;;;38.32;20.85;100360.63;4886033;29;20147;-74
2022/08/01 01:12:56;;;;;;;5.05;2.00;;;;;;;38.27;21.23;100363.75;4883242;29;20058;-75
2022/08/01 01:15:35;;;;;;;4.88;1.90;;;;;;;38.26;20.93;100366.63;4886941;29;20498;-73
2022/08/01 01:18:07;;;;;;;4.35;2.30;;;;;;;38.26;20.83;100364.75;4886928;29;20059;-74
2022/08/01 01:20:40;;;;;;;3.03;1.98;;;;;;;38.27;21.28;100362.91;4889438;29;20055;-74
2022/08/01 01:23:25;;;;;;;2.22;1.90;;;;;;;38.26;21.18;100361.22;4894064;29;20041;-72
2022/08/01 01:26:13;;;;;;;2.17;1.88;;;;;;;38.18;22.19;100359.22;4879615;29;20059;-74
2022/08/01 01:28:55;;;;;;;3.65;2.00;;;;;;;38.14;22.08;100358.66;4886329;29;20050;-73
2022/08/01 01:31:27;;;;;;;2.75;1.98;;;;;;;38.09;22.76;100355.50;4883584;29;20063;-73
2022/08/01 01:33:58;;;;;;;1.95;1.80;;;;;;;38.04;22.76;100356.94;4885985;29;20730;-71
2022/08/01 01:36:28;;;;;;;4.47;1.90;;;;;;;37.92;23.29;100353.50;4892561;29;20550;-74
2022/08/01 01:38:57;;;;;;;4.88;1.60;;;;;;;37.84;23.83;100354.19;4898544;29;20135;-73
2022/08/01 01:41:27;;;;;;;2.30;1.30;;;;;;;37.82;24.53;100353.50;4890810;29;20140;-74
2022/08/01 01:43:59;;;;;;;2.75;1.40;;;;;;;37.80;24.28;100347.41;4889725;29;20044;-75
2022/08/01 01:46:30;;;;;;;2.45;1.60;;;;;;;37.78;24.88;100348.53;4904217;29;20128;-73
2022/08/01 01:48:59;;;;;;;5.43;1.50;;;;;;;37.75;25.10;100340.69;4903688;29;20052;-73
2022/08/01 01:51:30;;;;;;;2.22;1.67;;;;;;;37.70;25.02;100347.38;4898357;29;20058;-73
2022/08/01 01:54:00;;;;;;;3.00;1.50;;;;;;;37.65;25.67;100349.63;4898118;29;20099;-74
2022/08/01 01:56:31;;;;;;;4.30;1.30;;;;;;;37.57;26.47;100343.22;4893694;29;20048;-73
2022/08/01 01:59:04;;;;;;;2.35;1.23;;;;;;;37.43;26.78;100347.16;4897338;29;20115;-74
2022/08/01 02:01:36;;;;;;;1.23;1.10;;;;;;;37.35;26.42;100355.94;4887236;29;20095;-73
2022/08/01 02:04:05;;;;;;;1.70;1.10;;;;;;;37.28;27.28;100355.63;4882667;29;20080;-74
2022/08/01 02:06:34;;;;;;;1.58;1.10;;;;;;;37.16;27.09;100355.91;4886818;29;20084;-75
2022/08/01 02:09:03;;;;;;;1.10;0.90;;;;;;;36.94;27.51;100356.91;4888355;29;20525;-74
2022/08/01 02:11:32;;;;;;;2.53;1.10;;;;;;;36.84;28.08;100360.41;4888776;29;20514;-74
2022/08/01 02:14:05;;;;;;;1.85;1.00;;;;;;;36.73;27.84;100365.03;4903305;29;20088;-73
2022/08/01 02:16:36;;;;;;;1.30;1.08;;;;;;;36.64;28.33;100366.66;4896199;29;20047;-73
2022/08/01 02:19:05;;;;;;;2.45;0.90;;;;;;;36.55;28.83;100367.44;4902755;29;20080;-73
2022/08/01 02:21:38;;;;;;;8.65;1.15;;;;;;;36.41;28.66;100369.47;4898306;29;20143;-73
2022/08/01 02:24:13;;;;;;;1.77;1.00;;;;;;;36.25;28.43;100372.59;4895229;29;20055;-74
2022/08/01 02:26:45;;;;;;;4.60;1.10;;;;;;;36.06;28.52;100375.13;4894133;29;20492;-73
2022/08/01 02:29:20;;;;;;;1.50;1.00;;;;;;;35.85;29.34;100380.44;4893858;29;20056;-74
2022/08/01 02:31:50;;;;;;;3.10;0.98;;;;;;;35.66;29.83;100381.97;4889446;29;20110;-75
2022/08/01 02:34:21;;;;;;;1.88;1.08;;;;;;;35.41;30.04;100376.84;4895371;29;20049;-74
2022/08/01 02:36:51;;;;;;;1.58;0.90;;;;;;;35.17;30.22;100385.06;4895685;29;20160;-73
2022/08/01 02:39:23;;;;;;;2.80;1.15;;;;;;;34.86;30.29;100384.75;4891004;29;20518;-74
2022/08/01 02:41:58;;;;;;;2.50;1.00;;;;;;;34.68;30.98;100389.72;4890829;29;20062;-73
2022/08/01 02:44:33;;;;;;;2.58;1.20;;;;;;;34.63;32.01;100386.53;4896154;29;20053;-74
2022/08/01 02:47:03;;;;;;;15.10;1.25;;;;;;;34.54;33.77;100389.91;4893045;29;20058;-74
2022/08/01 02:49:34;;;;;;;3.13;1.17;;;;;;;34.31;33.73;100387.16;4892704;29;20517;-75
2022/08/01 02:52:06;;;;;;;3.92;1.20;;;;;;;34.16;33.54;100397.25;4894990;29;20060;-74
2022/08/01 02:54:35;;;;;;;7.13;1.48;;;;;;;34.04;32.60;100399.94;4889851;29;20049;-74
2022/08/01 02:57:05;;;;;;;1.42;1.10;;;;;;;33.85;33.81;100395.94;4896275;29;20041;-74
2022/08/01 02:59:37;;;;;;;3.58;1.33;;;;;;;33.71;33.61;100393.44;4893956;29;20083;-75
2022/08/01 03:02:07;;;;;;;4.28;1.23;;;;;;;33.60;33.73;100391.53;4895963;29;20281;-74
2022/08/01 03:04:37;;;;;;;6.18;1.27;;;;;;;33.51;34.37;100390.34;4894076;29;20055;-74
2022/08/01 03:07:08;;;;;;;3.20;1.20;;;;;;;33.37;34.89;100385.13;4891495;29;20059;-73
2022/08/01 03:09:40;;;;;;;2.53;1.40;;;;;;;33.20;34.96;100378.28;4891776;29;20131;-75
2022/08/01 03:12:15;;;;;;;2.10;1.20;;;;;;;33.09;35.89;100375.50;4891213;29;20136;-75
2022/08/01 03:14:46;;;;;;;3.92;1.25;;;;;;;32.92;35.21;100374.00;4892302;29;20055;-74
2022/08/01 03:17:14;;;;;;;6.63;1.25;;;;;;;32.88;35.04;100377.84;4892984;29;20053;-75
2022/08/01 03:19:46;;;;;;;4.65;1.58;;;;;;;32.80;35.66;100383.72;4892259;29;20060;-75
2022/08/01 03:22:15;;;;;;;;;;;;;;;32.71;35.03;100384.38;4898259;29;20139;-75
2022/08/01 03:24:46;;;;;;;6.32;1.45;;;;;;;32.62;36.90;100387.69;4887570;29;19928;-75
2022/08/01 03:27:16;;;;;;;5.00;1.30;;;;;;;32.50;35.08;100390.19;4896868;29;20083;-75
2022/08/01 03:29:48;;;;;;;4.35;1.48;;;;;;;32.35;34.99;100396.63;4886392;29;20045;-74
2022/08/01 03:32:18;;;;;;;6.57;1.30;;;;;;;32.18;35.61;100410.25;4880964;29;20092;-75
2022/08/01 03:34:46;;;;;;;2.75;1.55;;;;;;;31.96;35.56;100421.50;4902446;29;20051;-76
2022/08/01 03:37:21;;;;;;;4.18;1.77;;;;;;;31.78;36.04;100423.56;4895868;28;20067;-75
2022/08/01 03:39:53;;;;;;;4.95;1.30;;;;;;;31.65;36.04;100439.53;4898712;29;20056;-74
2022/08/01 03:42:30;;;;;;;2.25;1.20;;;;;;;31.46;36.31;100435.34;4893431;29;20415;-73
2022/08/01 03:45:04;;;;;;;4.40;1.45;;;;;;;31.29;36.96;100439.06;4890330;29;20041;-74
2022/08/01 03:47:35;;;;;;;6.72;1.50;;;;;;;31.18;36.98;100446.88;4894315;29;20052;-74
2022/08/01 03:50:06;;;;;;;3.72;1.25;;;;;;;31.09;37.64;100461.66;4890602;29;20084;-73
2022/08/01 03:52:46;;;;;;;3.85;1.50;;;;;;;30.83;38.29;100470.34;4893401;29;20477;-75
2022/08/01 03:55:17;;;;;;;5.47;1.90;;;;;;;30.57;38.25;100478.09;4892465;29;20057;-74
2022/08/01 03:57:48;;;;;;;3.93;1.77;;;;;;;30.41;38.92;100485.28;4889981;29;20307;-74
2022/08/01 04:00:19;;;;;;;5.40;1.77;;;;;;;30.23;38.60;100485.31;4894322;29;20147;-72
2022/08/01 04:02:48;;;;;;;4.40;1.40;;;;;;;30.17;41.12;100495.47;4891614;29;20060;-72
2022/08/01 04:05:17;;;;;;;3.03;1.38;;;;;;;30.04;39.23;100485.50;4889818;29;20516;-75
2022/08/01 04:07:50;;;;;;;2.80;1.30;;;;;;;29.94;39.62;100499.44;4897992;29;20068;-75
2022/08/01 04:10:18;;;;;;;4.60;1.60;;;;;;;29.88;39.89;100489.13;4898788;29;20127;-75
2022/08/01 04:12:47;;;;;;;2.53;1.33;;;;;;;29.81;40.50;100502.78;4893620;29;20054;-74
2022/08/01 04:15:17;;;;;;;1.98;1.63;;;;;;;29.75;40.01;100502.28;4883737;29;20056;-75
2022/08/01 04:17:45;;;;;;;2.40;1.27;;;;;;;29.68;40.90;100507.06;4888764;29;20050;-74
2022/08/01 04:20:15;;;;;;;2.97;1.70;;;;;;;29.60;41.64;100511.94;4895336;29;20048;-75
2022/08/01 04:22:44;;;;;;;3.10;1.65;;;;;;;29.48;41.35;100508.13;4897899;29;20048;-74
2022/08/01 04:25:17;;;;;;;4.85;1.60;;;;;;;29.43;40.52;100521.66;4904526;29;20040;-74
2022/08/01 04:27:49;;;;;;;2.50;1.58;;;;;;;29.38;41.47;100522.88;4893995;29;20127;-74
2022/08/01 04:30:22;;;;;;;3.97;1.63;;;;;;;29.31;40.83;100519.66;4886784;29;20059;-75
2022/08/01 04:32:52;;;;;;;3.33;1.42;;;;;;;29.20;41.47;100524.69;4887977;29;20128;-75
2022/08/01 04:35:36;;;;;;;2.03;1.55;;;;;;;29.08;41.18;100520.88;4888885;29;20055;-75
2022/08/01 04:38:05;;;;;;;1.92;1.45;;;;;;;28.99;41.56;100511.50;4883900;29;20060;-75
2022/08/01 04:40:36;;;;;;;3.58;1.42;;;;;;;28.90;42.55;100513.78;4893879;29;20546;-74
2022/08/01 04:43:05;;;;;;;1.73;1.23;;;;;;;28.84;42.52;100517.63;4884046;29;20057;-75
2022/08/01 04:45:36;;;;;;;2.13;1.60;;;;;;;28.75;40.99;100510.97;4889550;29;20287;-74
2022/08/01 04:48:08;;;;;;;1.80;1.40;;;;;;;28.69;44.91;100519.25;4896191;29;20132;-74
2022/08/01 04:50:38;;;;;;;3.75;1.63;;;;;;;28.61;43.90;100524.97;4886872;29;20717;-75
2022/08/01 04:53:06;;;;;;;3.42;1.73;;;;;;;28.54;42.09;100526.19;4885505;29;20466;-74
2022/08/01 04:55:35;;;;;;;4.50;1.48;;;;;;;28.48;43.05;100522.97;4882987;29;20060;-75
2022/08/01 04:58:04;;;;;;;2.35;1.70;;;;;;;28.40;42.75;100528.63;4887288;29;20053;-75
2022/08/01 05:00:33;;;;;;;4.28;1.45;;;;;;;28.35;42.67;100528.00;4889404;29;20117;-75
2022/08/01 05:03:03;;;;;;;2.65;1.42;;;;;;;28.28;42.67;100524.75;4884945;29;20510;-75
2022/08/01 05:05:32;;;;;;;5.18;1.60;;;;;;;28.19;42.69;100520.72;4893066;29;20054;-76
2022/08/01 05:08:00;;;;;;;5.57;1.60;;;;;;;28.17;43.94;100524.41;4888526;29;20081;-75
2022/08/01 05:10:29;;;;;;;6.22;1.52;;;;;;;28.10;43.37;100526.47;4889650;29;20136;-75
2022/08/01 05:12:57;;;;;;;2.92;1.52;;;;;;;28.06;44.89;100524.94;4888093;29;20135;-75
2022/08/01 05:15:26;;;;;;;2.75;1.55;;;;;;;28.01;44.63;100532.22;4891746;29;20588;-74
2022/08/01 05:17:56;;;;;;;4.43;1.52;;;;;;;27.96;44.34;100527.13;4893661;29;20048;-74
2022/08/01 05:20:26;;;;;;;4.50;1.63;;;;;;;27.91;43.99;100522.97;4888447;29;20062;-75
2022/08/01 05:22:54;;;;;;;4.43;1.90;;;;;;;27.85;44.06;100520.59;4895180;29;20132;-73
2022/08/01 05:25:23;;;;;;;2.83;1.90;;;;;;;27.78;43.91;100523.50;4889954;29;20105;-75
2022/08/01 05:27:51;;;;;;;5.53;1.90;;;;;;;27.74;44.84;100523.69;4887946;29;20700;-75
2022/08/01 05:30:20;;;;;;;4.32;1.73;;;;;;;27.70;44.62;100523.00;4891465;29;20045;-74
2022/08/01 05:32:48;;;;;;;2.67;1.48;;;;;;;27.65;45.34;100518.81;4890345;29;20171;-75
2022/08/01 05:35:16;;;;;;;4.50;2.15;;;;;;;27.60;45.22;100526.13;4890167;29;20044;-74
2022/08/01 05:37:46;;;;;;;2.65;1.75;;;;;;;27.55;45.14;100526.34;4889219;29;20056;-74
2022/08/01 05:40:15;;;;;;;2.97;1.63;;;;;;;27.51;44.72;100517.66;4888293;29;20081;-74
2022/08/01 05:42:43;;;;;;;2.88;1.80;;;;;;;27.47;45.70;100520.53;4882648;29;20053;-75
2022/08/01 05:45:12;;;;;;;4.53;2.00;;;;;;;27.42;45.59;100527.81;4890238;29;20048;-75
2022/08/01 05:47:40;;;;;;;2.20;1.70;;;;;;;27.36;45.56;100524.50;4886714;29;20049;-75
2022/08/01 05:50:10;;;;;;;1.85;1.52;;;;;;;27.27;45.16;100519.59;4892263;29;20079;-76
2022/08/01 05:52:38;;;;;;;3.22;1.77;;;;;;;27.31;44.90;100534.47;4889417;29;20054;-76
2022/08/01 05:55:10;;;;;;;4.45;2.08;;;;;;;27.29;45.34;100533.66;4888633;29;20510;-75
2022/08/01 05:57:39;;;;;;;2.63;1.90;;;;;;;27.29;44.96;100538.13;4887413;29;20519;-76
2022/08/01 06:00:09;;;;;;;3.00;2.20;;;;;;;27.28;45.34;100547.91;4889225;29;20051;-74
2022/08/01 06:02:42;;;;;;;3.45;2.10;;;;;;;27.25;45.31;100552.47;4886532;29;20053;-74
2022/08/01 06:05:11;;;;;;;3.28;1.75;;;;;;;27.19;45.92;100542.94;4887246;29;20076;-74
2022/08/01 06:07:40;;;;;;;5.72;1.80;;;;;;;27.13;46.23;100537.88;4888804;29;20069;-75
2022/08/01 06:10:10;;;;;;;3.67;1.65;;;;;;;27.09;47.74;100545.09;4889633;29;20135;-75
2022/08/01 06:12:39;;;;;;;4.95;1.73;;;;;;;27.05;50.04;100547.97;4891629;29;20052;-75
2022/08/01 06:15:09;;;;;;;3.42;1.70;;;;;;;26.98;49.72;100542.03;4897073;29;20163;-73
2022/08/01 06:17:37;;;;;;;2.50;1.80;;;;;;;26.85;49.39;100548.81;4896466;29;20056;-75
2022/08/01 06:20:07;;;;;;;5.55;2.00;;;;;;;26.73;49.04;100547.50;4894812;29;20058;-74
2022/08/01 06:22:35;;;;;;;4.63;2.00;;;;;;;26.65;49.90;100547.81;4890599;29;20064;-75
2022/08/01 06:25:03;;;;;;;1.90;1.70;;;;;;;26.59;50.43;100544.56;4891378;29;20131;-75
2022/08/01 06:27:36;;;;;;;5.05;1.85;;;;;;;26.52;50.39;100558.03;4891839;29;20143;-74
2022/08/01 06:30:05;;;;;;;2.30;1.70;;;;;;;26.47;50.26;100554.69;4893991;29;20063;-74
2022/08/01 06:32:33;;;;;;;3.92;1.90;;;;;;;26.36;51.01;100561.34;4893428;29;20576;-75
2022/08/01 06:35:02;;;;;;;2.17;1.65;;;;;;;26.27;50.35;100570.53;4894458;29;20047;-75
2022/08/01 06:37:31;;;;;;;4.63;1.80;;;;;;;26.21;50.27;100570.78;4887289;29;21022;-75
2022/08/01 06:40:03;;;;;;;3.13;1.85;;;;;;;26.15;50.31;100573.66;4894693;29;20764;-75
2022/08/01 06:42:35;;;;;;;3.20;1.70;;;;;;;26.07;50.54;100577.47;4897650;29;20746;-75
2022/08/01 06:45:03;;;;;;;2.15;1.65;;;;;;;26.03;51.12;100570.56;4890528;29;20058;-74
2022/08/01 06:47:32;;;;;;;3.75;2.00;;;;;;;25.98;50.83;100577.81;4894060;29;20070;-76
2022/08/01 06:50:00;;;;;;;2.83;1.88;;;;;;;25.95;51.83;100571.75;4896854;29;20059;-76
2022/08/01 06:52:29;;;;;;;3.83;1.92;;;;;;;25.91;51.34;100576.31;4891215;29;20045;-76
2022/08/01 06:54:57;;;;;;;2.30;1.90;;;;;;;25.89;50.63;100572.88;4893664;29;20049;-76
2022/08/01 06:57:25;;;;;;;3.08;1.80;;;;;;;25.85;50.18;100577.38;4898728;29;20052;-75
2022/08/01 06:59:56;;;;;;;3.20;2.03;;;;;;;25.78;50.23;100577.66;4896880;29;20159;-74
2022/08/01 07:02:25;;;;;;;2.47;2.08;;;;;;;25.68;50.71;100569.19;4898193;29;20056;-75
2022/08/01 07:04:53;;;;;;;3.22;2.03;;;;;;;25.64;51.99;100571.06;4899409;29;20048;-75
2022/08/01 07:07:21;;;;;;;2.63;2.05;;;;;;;25.59;51.82;100566.88;4888592;29;20135;-75
2022/08/01 07:09:50;;;;;;;4.22;1.98;;;;;;;25.48;51.21;100577.84;4897646;29;20053;-74
2022/08/01 07:12:18;;;;;;;3.25;2.28;;;;;;;25.33;51.53;100584.50;4892873;29;20076;-75
2022/08/01 07:14:46;;;;;;;4.53;1.98;;;;;;;25.30;52.07;100597.88;4891633;29;20055;-74
2022/08/01 07:17:16;;;;;;;3.38;2.08;;;;;;;25.24;52.89;100612.19;4894268;29;20072;-75
2022/08/01 07:19:45;;;;;;;4.78;2.15;;;;;;;25.19;53.25;100614.13;4894452;29;20080;-75
2022/08/01 07:22:13;;;;;;;4.38;2.33;;;;;;;25.13;52.75;100616.06;4893617;29;20124;-74
2022/08/01 07:24:42;;;;;;;2.75;2.20;;;;;;;25.05;53.27;100616.31;4901804;29;20131;-75
2022/08/01 07:27:10;;;;;;;2.47;2.13;;;;;;;25.00;52.54;100612.97;4898862;29;20495;-75
2022/08/01 07:29:39;;;;;;;4.50;2.10;;;;;;;24.93;52.35;100616.75;4890194;29;20051;-75
2022/08/01 07:32:08;;;;;;;2.70;2.20;;;;;;;24.87;52.19;100628.38;4895301;29;20062;-74
2022/08/01 07:34:38;;;;;;;5.40;2.40;;;;;;;24.78;52.73;100624.22;4892376;29;20414;-74
2022/08/01 07:37:06;;;;;;;4.35;2.08;;;;;;;24.75;53.11;100623.47;4900314;29;20063;-73
2022/08/01 07:39:34;;;;;;;2.53;2.30;;;;;;;24.71;53.44;100617.41;4886518;29;20053;-73
2022/08/01 07:42:03;;;;;;;2.47;1.80;;;;;;;24.65;53.62;100617.63;4889998;29;20537;-74
2022/08/01 07:44:31;;;;;;;3.55;2.13;;;;;;;24.58;52.97;100631.91;4893416;29;20132;-73
2022/08/01 07:47:00;;;;;;;2.67;2.33;;;;;;;24.53;52.23;100628.56;4888100;29;20128;-74
2022/08/01 07:49:28;;;;;;;2.92;2.20;;;;;;;24.48;53.02;100639.28;4887655;29;20045;-73
2022/08/01 07:51:58;;;;;;;3.15;2.28;;;;;;;24.40;52.56;100642.13;4883370;29;20101;-74
2022/08/01 07:54:27;;;;;;;2.90;1.95;;;;;;;24.35;53.47;100651.09;4885811;29;20048;-73
2022/08/01 07:56:56;;;;;;;2.35;1.80;;;;;;;24.31;53.39;100646.81;4892664;29;20084;-74
2022/08/01 07:59:24;;;;;;;4.65;2.30;;;;;;;24.25;53.46;100648.72;4884480;29;20049;-74
2022/08/01 08:01:52;;;;;;;4.70;2.13;;;;;;;24.22;53.74;100655.88;4881063;29;20052;-74
2022/08/01 08:04:21;;;;;;;3.53;2.13;;;;;;;24.17;54.34;100658.66;4880803;29;20105;-74
2022/08/01 08:06:49;;;;;;;2.58;2.15;;;;;;;24.12;53.82;100660.56;4895141;29;20475;-74
2022/08/01 08:09:19;;;;;;;4.63;2.58;;;;;;;24.06;54.12;100657.22;4883690;29;20084;-74
2022/08/01 08:11:48;;;;;;;3.97;2.33;;;;;;;24.00;55.68;100652.97;4890327;29;20052;-75
2022/08/01 08:14:17;;;;;;;4.22;2.10;;;;;;;23.92;55.41;100652.31;4896839;29;20108;-73
2022/08/01 08:16:46;;;;;;;2.33;2.03;;;;;;;23.86;54.88;100668.34;4887892;29;20048;-75
2022/08/01 08:19:15;;;;;;;2.90;2.20;;;;;;;23.82;55.95;100668.44;4887114;29;20056;-75
2022/08/01 08:21:43;;;;;;;5.40;2.30;;;;;;;23.81;55.58;100671.09;4889649;29;20053;-75
2022/08/01 08:24:21;;;;;;;2.17;1.98;;;;;;;23.80;54.91;100670.25;4888114;29;20131;-75
2022/08/01 08:26:54;;;;;;;3.75;1.85;;;;;;;23.80;54.75;100682.56;4890176;29;20510;-75
2022/08/01 08:29:23;;;;;;;2.63;2.15;;;;;;;23.77;55.24;100675.59;4881329;29;20065;-75
2022/08/01 08:31:52;;;;;;;3.75;2.40;;;;;;;23.77;54.45;100680.00;4893684;29;20080;-76
2022/08/01 08:34:20;;;;;;;3.15;1.80;;;;;;;23.75;54.69;100679.19;4890551;29;20056;-75
2022/08/01 08:36:49;;;;;;;3.65;2.33;;;;;;;23.70;54.86;100683.69;4889365;29;20116;-74
2022/08/01 08:39:17;;;;;;;3.40;2.47;;;;;;;23.67;55.38;100678.50;4885168;29;20095;-73
2022/08/01 08:41:46;;;;;;;2.40;1.95;;;;;;;23.63;54.97;100683.84;4892883;29;20056;-73
2022/08/01 08:44:16;;;;;;;2.63;2.33;;;;;;;23.62;54.54;100689.19;4894623;29;20088;-73
2022/08/01 08:46:49;;;;;;;4.18;2.08;;;;;;;23.58;54.41;100696.31;4884357;29;20101;-74
2022/08/01 08:49:23;;;;;;;3.58;2.50;;;;;;;23.55;54.11;100706.94;4889488;29;20083;-73
2022/08/01 08:51:52;;;;;;;4.72;2.20;;;;;;;23.50;53.18;100714.13;4889121;29;20047;-75
2022/08/01 08:54:23;;;;;;;3.03;2.50;;;;;;;23.45;53.06;100710.72;4890775;29;20051;-75
2022/08/01 08:56:53;;;;;;;3.70;2.05;;;;;;;23.41;53.09;100719.63;4888178;29;20108;-75
2022/08/01 08:59:25;;;;;;;2.58;1.90;;;;;;;23.35;53.78;100723.28;4891847;29;20127;-74
2022/08/01 09:01:53;;;;;;;2.67;2.13;;;;;;;23.30;54.04;100724.31;4886221;29;20049;-74
2022/08/01 09:04:23;;;;;;;2.25;1.80;;;;;;;23.20;54.58;100732.44;4901422;29;20518;-75
2022/08/01 09:06:52;;;;;;;5.65;2.05;;;;;;;23.11;54.50;100734.41;4889654;29;20055;-74
2022/08/01 09:09:20;;;;;;;2.35;1.95;;;;;;;23.02;54.78;100735.50;4896173;29;20063;-74
2022/08/01 09:11:49;;;;;;;4.95;2.33;;;;;;;22.94;54.98;100740.88;4898244;29;20087;-74
2022/08/01 09:14:23;;;;;;;2.15;1.95;;;;;;;22.93;55.59;100748.81;4887368;29;20083;-75
2022/08/01 09:17:06;;;;;;;3.05;1.77;;;;;;;22.90;55.26;100747.13;4880788;29;20096;-75
2022/08/01 09:19:38;;;;;;;2.75;2.00;;;;;;;22.84;55.60;100756.94;4888435;29;20056;-75
2022/08/01 09:22:08;;;;;;;2.17;1.65;;;;;;;22.69;55.91;100756.38;4889517;29;20084;-74
2022/08/01 09:24:39;;;;;;;3.80;2.15;;;;;;;22.53;56.41;100754.94;4893459;29;20049;-75
2022/08/01 09:27:19;;;;;;;4.18;1.98;;;;;;;22.46;56.74;100758.59;4892105;29;20060;-75
2022/08/01 09:29:47;;;;;;;3.20;2.10;;;;;;;22.37;56.94;100757.00;4892488;29;20055;-74
2022/08/01 09:32:17;;;;;;;2.65;1.95;;;;;;;22.30;57.18;100761.53;4891519;29;20095;-75
2022/08/01 09:34:46;;;;;;;2.55;2.00;;;;;;;22.19;58.08;100768.72;4891948;29;20116;-75
2022/08/01 09:37:17;;;;;;;1.98;1.75;;;;;;;22.12;57.01;100764.47;4884911;29;20060;-75
2022/08/01 09:39:46;;;;;;;3.33;1.85;;;;;;;22.10;57.11;100771.53;4885728;29;20048;-74
2022/08/01 09:42:22;;;;;;;2.53;1.80;;;;;;;22.07;57.31;100772.47;4887960;29;20151;-74
2022/08/01 09:44:51;;;;;;;3.25;1.73;;;;;;;22.07;57.49;100776.88;4891780;29;20048;-75
2022/08/01 09:47:22;;;;;;;3.20;2.00;;;;;;;22.05;57.73;100770.75;4889580;29;20045;-74
2022/08/01 09:49:56;;;;;;;3.78;2.20;;;;;;;22.04;57.73;100766.41;4883417;29;20136;-75
2022/08/01 09:52:27;;;;;;;2.30;1.52;;;;;;;22.04;59.17;100767.25;4888993;29;20084;-74
2022/08/01 09:54:57;;;;;;;2.72;1.90;;;;;;;22.02;58.51;100762.91;4887727;29;20056;-75
2022/08/01 09:57:26;;;;;;;2.45;1.67;;;;;;;21.92;58.89;100765.72;4882629;29;20124;-76
2022/08/01 09:59:57;;;;;;;2.72;1.58;;;;;;;21.79;59.99;100760.69;4885158;29;20127;-75
2022/08/01 10:02:32;;;;;;;2.47;1.90;;;;;;;21.72;59.74;100752.00;4900273;29;20160;-76
2022/08/01 10:05:01;;;;;;;3.50;2.05;;;;;;;21.72;59.71;100741.47;4897190;29;20055;-75
2022/08/01 10:07:30;;;;;;;2.55;1.80;;;;;;;21.71;60.37;100734.44;4896331;29;20084;-75
2022/08/01 10:10:11;;;;;;;2.20;1.80;;;;;;;21.73;59.56;100732.66;4895516;29;20059;-75
2022/08/01 10:12:41;;;;;;;4.40;2.03;;;;;;;21.71;59.23;100726.56;4895982;29;20055;-75
2022/08/01 10:15:10;;;;;;;3.17;1.60;;;;;;;21.72;59.30;100728.31;4890203;29;20055;-75
2022/08/01 10:17:46;;;;;;;2.80;1.95;;;;;;;21.70;59.82;100725.69;4887275;29;20052;-75
2022/08/01 10:20:15;;;;;;;2.10;1.67;;;;;;;21.70;59.09;100720.44;4896839;29;20052;-75
2022/08/01 10:22:47;;;;;;;3.17;1.98;;;;;;;21.68;58.99;100718.72;4888006;29;20060;-75
2022/08/01 10:25:17;;;;;;;3.03;1.90;;;;;;;21.64;58.87;100715.25;4892498;29;20116;-75
2022/08/01 10:27:49;;;;;;;2.80;1.90;;;;;;;21.59;59.00;100716.22;4888025;29;20052;-74
2022/08/01 10:30:18;;;;;;;3.30;1.80;;;;;;;21.51;59.07;100709.34;4895455;29;20065;-75
2022/08/01 10:32:48;;;;;;;2.88;1.63;;;;;;;21.53;59.49;100710.19;4894468;29;20068;-74
2022/08/01 10:35:17;;;;;;;2.72;1.83;;;;;;;21.54;59.70;100706.66;4890360;29;20063;-75
2022/08/01 10:37:47;;;;;;;2.80;1.83;;;;;;;21.54;59.61;100709.28;4889677;29;20049;-75
2022/08/01 10:40:16;;;;;;;3.28;2.00;;;;;;;21.51;59.86;100717.22;4888460;29;20142;-76
2022/08/01 10:42:53;;;;;;;2.53;1.90;;;;;;;21.44;60.65;100734.03;4894469;29;20116;-75
2022/08/01 10:45:28;;;;;;;2.42;1.85;;;;;;;21.38;60.65;100744.59;4896268;29;20049;-75
2022/08/01 10:48:04;;;;;;;3.55;2.03;;;;;;;21.32;61.34;100755.22;4895389;29;20052;-75
2022/08/01 10:50:36;;;;;;;2.25;2.05;;;;;;;21.26;61.64;100756.19;4896037;29;20760;-74
2022/08/01 10:53:15;;;;;;;3.78;1.77;;;;;;;21.21;61.62;100744.88;4895749;29;20545;-75
2022/08/01 10:55:59;;;;;;;2.63;1.60;;;;;;;21.17;62.03;100766.00;4891729;29;20076;-75
2022/08/01 10:58:31;;;;;;;3.25;1.60;;;;;;;21.11;62.38;100764.28;4897847;29;20126;-76
2022/08/01 11:01:25;;;;;;;2.28;1.58;;;;;;;21.06;62.54;100779.28;4891628;29;20045;-76
2022/08/01 11:04:08;;;;;;;2.97;1.80;;;;;;;21.06;62.44;100771.38;4892337;29;20067;-75
2022/08/01 11:06:55;;;;;;;1.60;1.40;;;;;;;21.07;62.26;100786.25;4905790;29;20055;-75
2022/08/01 11:09:33;;;;;;;3.80;1.52;;;;;;;21.07;62.17;100771.38;4894198;29;20499;-75
2022/08/01 11:12:05;;;;;;;2.67;1.92;;;;;;;21.10;62.65;100787.09;4893061;29;20049;-75
2022/08/01 11:14:34;;;;;;;3.75;1.80;;;;;;;21.11;62.49;100799.34;4893665;29;20072;-75
2022/08/01 11:17:32;;;;;;;3.03;1.67;;;;;;;21.10;62.32;100826.56;4899133;29;20051;-76
2022/08/01 11:20:11;;;;;;;2.63;1.90;;;;;;;21.02;61.71;100831.06;4895453;29;20057;-75
2022/08/01 11:23:24;;;;;;;2.72;1.67;;;;;;;21.01;62.06;100824.06;4900449;29;20135;-75
2022/08/01 11:26:15;;;;;;;;;;;;;;;21.00;62.09;100817.03;4893543;29;20666;-74
2022/08/01 11:28:45;;;;;;;2.35;1.70;;;;;;;20.97;62.16;100808.34;4875791;29;19927;-75
2022/08/01 11:31:30;;;;;;;3.20;1.50;;;;;;;20.79;62.57;100791.00;4896925;29;20062;-75
2022/08/01 11:33:59;;;;;;;2.63;1.70;;;;;;;20.71;63.09;100805.13;4888754;29;20055;-75
2022/08/01 11:36:29;;;;;;;3.05;1.50;;;;;;;20.70;62.97;100797.25;4890243;29;20127;-75
2022/08/01 11:39:20;;;;;;;2.97;1.50;;;;;;;20.68;63.14;100805.19;4892143;29;20100;-75
2022/08/01 11:41:49;;;;;;;3.22;1.48;;;;;;;20.68;62.94;100807.81;4890080;29;20135;-75
2022/08/01 11:44:22;;;;;;;1.55;1.30;;;;;;;20.67;62.79;100813.06;4889010;29;20049;-75